createdAt,value
2019-04-30T00:00:00.322Z,11.20
2019-04-30T00:02:42.391Z,11.10
2019-04-30T00:05:17.365Z,11.10
2019-04-30T00:07:41.430Z,11.30
2019-04-30T00:10:10.324Z,11.20
2019-04-30T00:12:39.692Z,11.10
2019-04-30T00:15:10.992Z,11.00
2019-04-30T00:17:38.729Z,11.20
2019-04-30T00:20:09.361Z,11.30
2019-04-30T00:22:39.330Z,11.40
2019-04-30T00:25:08.498Z,11.20
2019-04-30T00:27:40.348Z,11.10
2019-04-30T00:30:09.248Z,11.00
2019-04-30T00:32:43.498Z,11.10
2019-04-30T00:35:11.826Z,11.00
2019-04-30T00:37:44.945Z,10.90
2019-04-30T00:40:15.383Z,10.70
2019-04-30T00:42:45.663Z,10.70
2019-04-30T00:45:15.428Z,10.80
2019-04-30T00:47:47.914Z,10.80
2019-04-30T00:50:16.676Z,10.90
2019-04-30T00:52:57.858Z,11.10
2019-04-30T00:55:32.437Z,11.10
2019-04-30T00:58:01.062Z,11.10
2019-04-30T01:00:31.361Z,11.00
2019-04-30T01:03:07.871Z,11.10
2019-04-30T01:05:39.554Z,11.10
2019-04-30T01:08:07.204Z,11.30
2019-04-30T01:10:35.763Z,11.30
2019-04-30T01:13:08.063Z,11.50
2019-04-30T01:15:34.588Z,11.70
2019-04-30T01:18:03.201Z,11.60
2019-04-30T01:20:32.909Z,11.50
2019-04-30T01:23:03.018Z,11.40
2019-04-30T01:25:32.053Z,11.60
2019-04-30T01:28:00.756Z,11.60
2019-04-30T01:30:30.215Z,11.60
2019-04-30T01:33:00.950Z,11.70
2019-04-30T01:35:35.986Z,11.60
2019-04-30T01:38:11.072Z,11.60
2019-04-30T01:40:42.811Z,11.70
2019-04-30T01:43:12.864Z,11.70
2019-04-30T01:45:41.440Z,11.90
2019-04-30T01:48:12.814Z,11.90
2019-04-30T01:50:42.066Z,11.80
2019-04-30T01:53:18.495Z,11.80
2019-04-30T01:55:59.191Z,11.80
2019-04-30T01:58:33.500Z,11.80
2019-04-30T02:01:06.599Z,11.80
2019-04-30T02:03:35.312Z,11.90
2019-04-30T02:06:03.987Z,11.90
2019-04-30T02:08:32.575Z,12.00
2019-04-30T02:11:01.159Z,11.80
2019-04-30T02:13:35.583Z,11.80
2019-04-30T02:16:04.298Z,11.70
2019-04-30T02:18:32.883Z,11.70
2019-04-30T02:21:01.555Z,11.50
2019-04-30T02:23:30.187Z,11.50
2019-04-30T02:25:59.560Z,11.70
2019-04-30T02:28:29.030Z,11.50
2019-04-30T02:31:00.427Z,11.60
2019-04-30T02:33:30.719Z,11.60
2019-04-30T02:36:03.768Z,11.60
2019-04-30T02:38:33.985Z,11.60
2019-04-30T02:41:03.535Z,11.80
2019-04-30T02:43:33.809Z,11.70
2019-04-30T02:46:09.689Z,11.80
2019-04-30T02:48:42.976Z,11.70
2019-04-30T02:51:14.007Z,11.70
2019-04-30T02:54:11.040Z,11.60
2019-04-30T02:56:41.106Z,11.80
2019-04-30T02:59:10.408Z,11.50
2019-04-30T03:01:40.200Z,11.60
2019-04-30T03:04:09.972Z,11.60
2019-04-30T03:06:40.261Z,11.60
2019-04-30T03:09:10.355Z,11.40
2019-04-30T03:11:40.537Z,11.40
2019-04-30T03:14:10.611Z,11.20
2019-04-30T03:17:00.137Z,11.30
2019-04-30T03:19:40.344Z,11.40
2019-04-30T03:22:20.891Z,11.30
2019-04-30T03:24:50.155Z,11.30
2019-04-30T03:27:21.096Z,11.40
2019-04-30T03:29:50.342Z,11.30
2019-04-30T03:32:22.271Z,11.40
2019-04-30T03:34:51.802Z,11.50
2019-04-30T03:37:20.678Z,11.50
2019-04-30T03:40:22.536Z,11.70
2019-04-30T03:42:54.233Z,11.50
2019-04-30T03:45:30.162Z,11.40
2019-04-30T03:48:01.563Z,11.10
2019-04-30T03:50:49.268Z,11.20
2019-04-30T03:53:15.800Z,11.30
2019-04-30T03:55:56.815Z,11.30
2019-04-30T03:58:43.043Z,11.20
2019-04-30T04:01:15.311Z,11.30
2019-04-30T04:04:00.707Z,11.20
2019-04-30T04:06:31.250Z,11.20
2019-04-30T04:09:10.477Z,11.00
2019-04-30T04:11:51.300Z,10.90
2019-04-30T04:14:20.866Z,10.90
2019-04-30T04:17:12.274Z,10.90
2019-04-30T04:19:41.072Z,10.70
2019-04-30T04:22:15.813Z,10.90
2019-04-30T04:25:00.094Z,10.90
2019-04-30T04:27:40.436Z,10.90
2019-04-30T04:30:29.540Z,11.10
2019-04-30T04:32:59.942Z,11.20
2019-04-30T04:35:29.910Z,11.20
2019-04-30T04:38:00.445Z,11.10
2019-04-30T04:40:46.163Z,11.00
2019-04-30T04:43:32.776Z,11.10
2019-04-30T04:46:12.583Z,11.20
2019-04-30T04:49:12.090Z,11.30
2019-04-30T04:51:42.059Z,11.50
2019-04-30T04:54:34.596Z,11.60
2019-04-30T04:57:14.944Z,11.30
2019-04-30T04:59:42.466Z,11.40
2019-04-30T05:02:35.088Z,11.40
2019-04-30T05:05:19.342Z,11.50
2019-04-30T05:08:00.229Z,11.50
2019-04-30T05:10:35.264Z,11.40
2019-04-30T05:13:09.070Z,11.20
2019-04-30T05:16:00.659Z,11.30
2019-04-30T05:18:31.000Z,11.50
2019-04-30T05:21:03.805Z,11.40
2019-04-30T05:23:35.393Z,11.40
2019-04-30T05:26:04.169Z,11.20
2019-04-30T05:28:39.359Z,11.10
2019-04-30T05:31:08.762Z,11.10
2019-04-30T05:33:39.087Z,11.10
2019-04-30T05:36:09.317Z,11.00
2019-04-30T05:38:39.155Z,11.00
2019-04-30T05:41:09.301Z,10.90
2019-04-30T05:43:38.700Z,10.90
2019-04-30T05:46:11.048Z,11.00
2019-04-30T05:48:56.001Z,11.00
2019-04-30T05:51:28.933Z,11.20
2019-04-30T05:54:04.457Z,11.20
2019-04-30T05:56:36.578Z,11.20
2019-04-30T05:59:09.018Z,11.00
2019-04-30T06:01:47.864Z,11.10
2019-04-30T06:04:19.285Z,11.00
2019-04-30T06:07:03.237Z,10.80
2019-04-30T06:09:45.474Z,11.00
2019-04-30T06:12:28.422Z,11.00
2019-04-30T06:15:13.915Z,11.00
2019-04-30T06:17:57.929Z,11.20
2019-04-30T06:20:20.825Z,11.30
2019-04-30T06:22:54.650Z,11.40
2019-04-30T06:25:37.274Z,11.40
2019-04-30T06:28:04.124Z,11.50
2019-04-30T06:30:41.687Z,11.30
2019-04-30T06:33:12.552Z,11.40
2019-04-30T06:35:49.069Z,11.50
2019-04-30T06:38:20.581Z,11.50
2019-04-30T06:40:51.457Z,11.60
2019-04-30T06:43:21.680Z,11.90
2019-04-30T06:45:51.266Z,12.20
2019-04-30T06:48:20.777Z,12.50
2019-04-30T06:50:55.302Z,12.60
2019-04-30T06:53:23.937Z,12.50
2019-04-30T06:55:53.724Z,12.80
2019-04-30T06:58:26.489Z,13.20
2019-04-30T07:00:55.780Z,13.40
2019-04-30T07:03:24.884Z,13.70
2019-04-30T07:06:04.672Z,13.80
2019-04-30T07:08:39.129Z,13.70
2019-04-30T07:11:12.643Z,13.90
2019-04-30T07:13:44.803Z,13.50
2019-04-30T07:16:13.627Z,13.20
2019-04-30T07:18:45.510Z,13.50
2019-04-30T07:21:19.927Z,13.30
2019-04-30T07:23:49.238Z,13.50
2019-04-30T07:26:24.890Z,13.60
2019-04-30T07:29:04.272Z,13.60
2019-04-30T07:31:36.327Z,13.60
2019-04-30T07:34:09.546Z,13.20
2019-04-30T07:36:48.425Z,13.50
2019-04-30T07:39:13.852Z,13.40
2019-04-30T07:41:49.491Z,13.20
2019-04-30T07:44:30.957Z,13.50
2019-04-30T07:46:49.327Z,13.80
2019-04-30T07:49:20.996Z,14.30
2019-04-30T07:51:51.801Z,14.60
2019-04-30T07:54:32.159Z,14.50
2019-04-30T07:57:04.231Z,13.80
2019-04-30T07:59:40.529Z,13.90
2019-04-30T08:02:14.851Z,14.00
2019-04-30T08:04:44.743Z,13.30
2019-04-30T08:07:13.867Z,12.90
2019-04-30T08:09:42.893Z,13.10
2019-04-30T08:12:25.973Z,13.40
2019-04-30T08:14:49.612Z,14.10
2019-04-30T08:17:24.556Z,14.30
2019-04-30T08:19:53.516Z,14.60
2019-04-30T08:22:23.791Z,14.30
2019-04-30T08:24:52.925Z,14.60
2019-04-30T08:27:25.995Z,15.30
2019-04-30T08:29:55.322Z,16.10
2019-04-30T08:32:24.755Z,16.10
2019-04-30T08:34:54.028Z,15.60
2019-04-30T08:37:22.748Z,14.60
2019-04-30T08:39:52.883Z,14.90
2019-04-30T08:42:30.717Z,15.60
2019-04-30T08:44:52.576Z,16.50
2019-04-30T08:47:26.172Z,17.60
2019-04-30T08:50:02.481Z,18.20
2019-04-30T08:52:35.819Z,18.10
2019-04-30T08:55:16.449Z,17.30
2019-04-30T08:57:46.882Z,16.80
2019-04-30T09:00:16.887Z,16.70
2019-04-30T09:02:49.163Z,16.40
2019-04-30T09:05:30.710Z,16.40
2019-04-30T09:07:59.824Z,16.60
2019-04-30T09:10:29.485Z,16.40
2019-04-30T09:13:04.228Z,15.70
2019-04-30T09:15:33.094Z,15.60
2019-04-30T09:18:20.624Z,15.90
2019-04-30T09:20:50.259Z,17.70
2019-04-30T09:23:19.279Z,19.90
2019-04-30T09:25:49.685Z,19.80
2019-04-30T09:28:19.875Z,19.90
2019-04-30T09:30:48.715Z,17.70
2019-04-30T09:33:19.395Z,16.30
2019-04-30T09:35:49.571Z,16.00
2019-04-30T09:38:19.514Z,16.00
2019-04-30T09:40:50.582Z,15.60
2019-04-30T09:43:20.951Z,15.20
2019-04-30T09:45:50.540Z,15.60
2019-04-30T09:48:25.695Z,16.00
2019-04-30T09:50:56.847Z,15.60
2019-04-30T09:53:29.388Z,15.70
2019-04-30T09:55:59.520Z,15.40
2019-04-30T09:58:41.007Z,15.50
2019-04-30T10:01:09.571Z,15.40
2019-04-30T10:03:39.341Z,15.50
2019-04-30T10:06:09.058Z,15.50
2019-04-30T10:08:47.824Z,15.30
2019-04-30T10:11:16.121Z,14.40
2019-04-30T10:13:44.832Z,14.30
2019-04-30T10:16:21.306Z,14.60
2019-04-30T10:18:50.086Z,14.60
2019-04-30T10:21:19.127Z,14.80
2019-04-30T10:23:49.812Z,14.90
2019-04-30T10:26:19.774Z,14.50
2019-04-30T10:28:58.575Z,15.00
2019-04-30T10:31:29.304Z,15.30
2019-04-30T10:33:58.633Z,15.60
2019-04-30T10:36:29.428Z,15.70
2019-04-30T10:38:59.507Z,15.70
2019-04-30T10:41:28.933Z,15.80
2019-04-30T10:43:59.198Z,16.40
2019-04-30T10:46:28.000Z,16.50
2019-04-30T10:48:56.730Z,16.40
2019-04-30T10:51:28.875Z,16.20
2019-04-30T10:53:59.201Z,16.20
2019-04-30T10:56:29.228Z,16.60
2019-04-30T10:58:57.998Z,17.00
2019-04-30T11:01:33.260Z,16.50
2019-04-30T11:04:08.400Z,16.40
2019-04-30T11:06:37.535Z,16.60
2019-04-30T11:09:12.182Z,17.50
2019-04-30T11:11:41.041Z,17.50
2019-04-30T11:14:09.705Z,16.70
2019-04-30T11:16:38.462Z,16.40
2019-04-30T11:19:09.242Z,16.20
2019-04-30T11:21:38.110Z,16.50
2019-04-30T11:24:09.183Z,16.30
2019-04-30T11:26:40.032Z,16.60
2019-04-30T11:29:08.063Z,17.00
2019-04-30T11:31:38.438Z,16.00
2019-04-30T11:34:07.779Z,15.80
2019-04-30T11:36:38.896Z,16.40
2019-04-30T11:39:11.033Z,16.40
2019-04-30T11:41:41.139Z,16.20
2019-04-30T11:44:30.288Z,17.10
2019-04-30T11:47:01.676Z,17.50
2019-04-30T11:49:30.416Z,17.90
2019-04-30T11:51:59.306Z,18.10
2019-04-30T11:54:29.720Z,17.20
2019-04-30T11:56:58.857Z,17.30
2019-04-30T11:59:29.624Z,16.90
2019-04-30T12:01:59.900Z,16.70
2019-04-30T12:04:29.889Z,17.40
2019-04-30T12:07:01.561Z,16.40
2019-04-30T12:09:51.975Z,15.70
2019-04-30T12:12:21.010Z,16.20
2019-04-30T12:14:50.199Z,17.30
2019-04-30T12:17:19.774Z,18.50
2019-04-30T12:19:48.818Z,18.40
2019-04-30T12:22:20.116Z,18.30
2019-04-30T12:25:02.029Z,18.10
2019-04-30T12:27:20.948Z,18.60
2019-04-30T12:29:49.806Z,18.90
2019-04-30T12:32:21.931Z,19.30
2019-04-30T12:34:51.680Z,18.50
2019-04-30T12:37:20.598Z,16.90
2019-04-30T12:39:49.533Z,17.30
2019-04-30T12:42:18.946Z,17.70
2019-04-30T12:44:53.816Z,17.70
2019-04-30T12:47:29.488Z,17.40
2019-04-30T12:50:01.047Z,17.70
2019-04-30T12:52:34.829Z,17.10
2019-04-30T12:55:15.170Z,17.00
2019-04-30T12:57:41.534Z,17.70
2019-04-30T13:00:11.071Z,17.30
2019-04-30T13:02:39.903Z,17.40
2019-04-30T13:05:08.958Z,18.00
2019-04-30T13:07:39.842Z,18.40
2019-04-30T13:10:09.586Z,17.60
2019-04-30T13:12:39.312Z,17.60
2019-04-30T13:15:16.733Z,17.70
2019-04-30T13:17:58.549Z,18.20
2019-04-30T13:20:45.598Z,18.00
2019-04-30T13:23:14.810Z,17.80
2019-04-30T13:25:51.281Z,18.10
2019-04-30T13:28:20.093Z,17.60
2019-04-30T13:30:49.525Z,17.10
2019-04-30T13:33:20.521Z,17.70
2019-04-30T13:35:49.307Z,18.70
2019-04-30T13:38:22.483Z,17.80
2019-04-30T13:40:52.820Z,17.20
2019-04-30T13:43:40.205Z,16.70
2019-04-30T13:46:08.979Z,16.90
2019-04-30T13:48:43.407Z,17.40
2019-04-30T13:51:14.173Z,17.50
2019-04-30T13:53:44.902Z,17.10
2019-04-30T13:56:13.613Z,16.90
2019-04-30T13:58:42.203Z,16.60
2019-04-30T14:01:10.890Z,16.80
2019-04-30T14:03:50.029Z,17.20
2019-04-30T14:06:20.324Z,17.30
2019-04-30T14:08:53.837Z,16.80
2019-04-30T14:11:24.561Z,16.50
2019-04-30T14:13:53.280Z,16.90
2019-04-30T14:16:22.119Z,17.20
2019-04-30T14:18:50.832Z,18.00
2019-04-30T14:21:32.290Z,18.00
2019-04-30T14:23:51.922Z,17.80
2019-04-30T14:26:20.782Z,17.40
2019-04-30T14:28:51.895Z,17.90
2019-04-30T14:31:20.932Z,18.00
2019-04-30T14:33:52.133Z,18.20
2019-04-30T14:36:20.858Z,17.00
2019-04-30T14:38:49.453Z,16.40
2019-04-30T14:41:18.512Z,16.00
2019-04-30T14:43:58.358Z,16.60
2019-04-30T14:46:50.146Z,17.20
2019-04-30T14:49:26.798Z,18.10
2019-04-30T14:51:55.963Z,18.90
2019-04-30T14:54:32.333Z,18.70
2019-04-30T14:57:02.644Z,17.40
2019-04-30T14:59:39.224Z,16.70
2019-04-30T15:02:12.433Z,16.30
2019-04-30T15:04:41.383Z,16.20
2019-04-30T15:07:10.413Z,16.20
2019-04-30T15:09:42.432Z,16.60
2019-04-30T15:12:11.151Z,16.70
2019-04-30T15:14:41.040Z,17.10
2019-04-30T15:17:09.749Z,17.80
2019-04-30T15:19:44.343Z,18.60
2019-04-30T15:22:13.196Z,18.60
2019-04-30T15:24:41.853Z,18.10
2019-04-30T15:27:10.471Z,17.50
2019-04-30T15:29:40.104Z,17.30
2019-04-30T15:32:08.832Z,16.90
2019-04-30T15:34:40.849Z,16.10
2019-04-30T15:37:19.226Z,16.00
2019-04-30T15:39:42.944Z,16.20
2019-04-30T15:42:11.852Z,16.10
2019-04-30T15:44:43.266Z,15.90
2019-04-30T15:47:28.788Z,15.80
2019-04-30T15:50:19.521Z,16.00
2019-04-30T15:52:55.279Z,16.10
2019-04-30T15:55:34.506Z,16.10
2019-04-30T15:58:05.247Z,15.90
2019-04-30T16:00:37.204Z,16.10
2019-04-30T16:03:09.403Z,16.80
2019-04-30T16:05:42.537Z,17.40
2019-04-30T16:08:19.730Z,17.20
2019-04-30T16:11:07.102Z,17.00
2019-04-30T16:13:53.875Z,16.60
2019-04-30T16:16:45.614Z,16.20
2019-04-30T16:19:14.398Z,15.90
2019-04-30T16:21:44.255Z,15.70
2019-04-30T16:24:14.752Z,15.80
2019-04-30T16:26:49.608Z,15.80
2019-04-30T16:29:14.831Z,15.50
2019-04-30T16:31:49.305Z,15.30
2019-04-30T16:34:17.914Z,15.40
2019-04-30T16:36:49.028Z,15.50
2019-04-30T16:39:18.673Z,15.60
2019-04-30T16:41:49.094Z,15.60
2019-04-30T16:44:19.259Z,14.90
2019-04-30T16:46:49.531Z,14.80
2019-04-30T16:49:19.040Z,14.90
2019-04-30T16:51:50.458Z,14.80
2019-04-30T16:54:19.140Z,14.80
2019-04-30T16:56:56.421Z,14.90
2019-04-30T16:59:32.040Z,14.80
2019-04-30T17:02:00.909Z,14.70
2019-04-30T17:04:31.336Z,14.60
2019-04-30T17:07:23.728Z,14.60
2019-04-30T17:10:05.392Z,14.60
2019-04-30T17:12:51.193Z,14.50
2019-04-30T17:15:21.698Z,14.50
2019-04-30T17:17:50.612Z,14.60
2019-04-30T17:20:20.915Z,14.90
2019-04-30T17:22:52.621Z,14.90
2019-04-30T17:25:21.605Z,15.00
2019-04-30T17:27:55.719Z,14.90
2019-04-30T17:30:49.020Z,15.10
2019-04-30T17:33:20.826Z,14.90
2019-04-30T17:35:49.939Z,15.00
2019-04-30T17:38:18.519Z,14.90
2019-04-30T17:40:49.489Z,14.70
2019-04-30T17:43:17.681Z,14.50
2019-04-30T17:45:46.492Z,14.50
2019-04-30T17:48:21.252Z,14.30
2019-04-30T17:50:49.956Z,14.20
2019-04-30T17:53:19.459Z,14.10
2019-04-30T17:55:49.075Z,13.90
2019-04-30T17:58:20.434Z,13.90
2019-04-30T18:00:52.167Z,13.90
2019-04-30T18:03:20.849Z,13.90
2019-04-30T18:05:51.002Z,13.90
2019-04-30T18:08:20.054Z,13.90
2019-04-30T18:10:49.480Z,14.00
2019-04-30T18:13:19.707Z,13.90
2019-04-30T18:15:48.776Z,13.90
2019-04-30T18:18:19.245Z,13.70
2019-04-30T18:20:49.949Z,13.60
2019-04-30T18:23:32.704Z,13.50
2019-04-30T18:26:05.662Z,13.50
2019-04-30T18:28:34.878Z,13.20
2019-04-30T18:31:10.647Z,13.10
2019-04-30T18:33:39.922Z,12.80
2019-04-30T18:36:09.587Z,12.70
2019-04-30T18:38:39.200Z,12.70
2019-04-30T18:41:09.436Z,12.60
2019-04-30T18:43:40.503Z,12.60
2019-04-30T18:46:10.734Z,12.70
2019-04-30T18:48:40.055Z,12.60
2019-04-30T18:51:23.737Z,12.50
2019-04-30T18:53:39.789Z,12.30
2019-04-30T18:56:14.718Z,12.20
2019-04-30T18:58:43.154Z,12.00
2019-04-30T19:01:12.942Z,11.90
2019-04-30T19:03:41.810Z,11.70
2019-04-30T19:06:22.505Z,11.50
2019-04-30T19:08:44.507Z,11.50
2019-04-30T19:11:24.108Z,11.40
2019-04-30T19:13:57.152Z,11.30
2019-04-30T19:16:33.949Z,11.30
2019-04-30T19:19:06.413Z,11.20
2019-04-30T19:21:35.607Z,11.20
2019-04-30T19:24:04.419Z,11.10
2019-04-30T19:26:33.100Z,11.00
2019-04-30T19:29:02.885Z,10.90
2019-04-30T19:31:34.276Z,10.80
2019-04-30T19:34:03.030Z,10.90
2019-04-30T19:36:37.403Z,10.90
2019-04-30T19:39:05.693Z,10.80
2019-04-30T19:41:40.012Z,10.80
2019-04-30T19:44:08.837Z,10.70
2019-04-30T19:46:37.614Z,10.60
2019-04-30T19:49:06.242Z,10.60
2019-04-30T19:51:35.015Z,10.50
2019-04-30T19:54:03.718Z,10.40
2019-04-30T19:56:32.966Z,10.30
2019-04-30T19:59:05.445Z,10.20
2019-04-30T20:01:32.948Z,10.20
2019-04-30T20:04:02.210Z,10.20
2019-04-30T20:06:31.178Z,10.20
2019-04-30T20:09:00.757Z,10.10
2019-04-30T20:11:29.802Z,10.30
2019-04-30T20:13:59.688Z,10.40
2019-04-30T20:16:31.448Z,10.30
2019-04-30T20:19:00.407Z,10.30
2019-04-30T20:21:45.790Z,10.10
2019-04-30T20:24:04.463Z,9.90
2019-04-30T20:26:43.546Z,9.90
2019-04-30T20:29:13.406Z,9.90
2019-04-30T20:31:42.241Z,9.70
2019-04-30T20:34:11.086Z,9.50
2019-04-30T20:36:39.985Z,9.40
2019-04-30T20:39:23.005Z,9.50
2019-04-30T20:41:52.790Z,9.40
2019-04-30T20:44:22.801Z,9.40
2019-04-30T20:46:51.501Z,9.40
2019-04-30T20:49:20.306Z,9.70
2019-04-30T20:51:55.585Z,10.10
2019-04-30T20:54:21.611Z,10.20
2019-04-30T20:56:56.160Z,10.20
2019-04-30T20:59:33.280Z,10.30
2019-04-30T21:02:05.388Z,10.50
2019-04-30T21:04:40.147Z,10.60
2019-04-30T21:07:09.436Z,11.00
2019-04-30T21:09:38.325Z,11.20
2019-04-30T21:12:08.857Z,11.00
2019-04-30T21:14:38.503Z,11.00
2019-04-30T21:17:08.003Z,11.10
2019-04-30T21:19:39.018Z,11.40
2019-04-30T21:22:09.532Z,11.60
2019-04-30T21:24:40.186Z,11.40
2019-04-30T21:27:09.196Z,11.30
2019-04-30T21:29:40.643Z,11.50
2019-04-30T21:32:21.365Z,11.60
2019-04-30T21:34:54.813Z,11.60
2019-04-30T21:37:23.730Z,11.40
2019-04-30T21:39:52.280Z,11.50
2019-04-30T21:42:20.961Z,11.40
2019-04-30T21:44:49.556Z,11.20
2019-04-30T21:47:18.339Z,11.20
2019-04-30T21:49:47.122Z,10.90
2019-04-30T21:52:15.937Z,10.90
2019-04-30T21:54:44.697Z,10.90
2019-04-30T21:57:13.623Z,10.80
2019-04-30T21:59:48.756Z,10.70
2019-04-30T22:02:19.053Z,10.60
2019-04-30T22:04:48.325Z,10.50
2019-04-30T22:07:19.347Z,10.60
2019-04-30T22:09:47.922Z,10.40
2019-04-30T22:12:19.163Z,10.40
2019-04-30T22:14:48.248Z,10.50
2019-04-30T22:17:19.170Z,10.50
2019-04-30T22:19:49.137Z,10.60
2019-04-30T22:22:19.285Z,10.80
2019-04-30T22:24:49.670Z,10.80
2019-04-30T22:27:18.296Z,10.40
2019-04-30T22:29:47.976Z,10.40
2019-04-30T22:32:20.090Z,10.50
2019-04-30T22:34:48.827Z,10.50
2019-04-30T22:37:19.616Z,10.60
2019-04-30T22:39:56.341Z,10.50
2019-04-30T22:42:32.856Z,10.50
2019-04-30T22:45:04.409Z,10.50
2019-04-30T22:47:35.736Z,10.40
2019-04-30T22:50:06.962Z,10.30
2019-04-30T22:52:37.751Z,10.20
2019-04-30T22:55:13.950Z,10.20
2019-04-30T22:57:46.706Z,10.10
2019-04-30T23:00:18.215Z,9.70
2019-04-30T23:02:48.501Z,9.70
2019-04-30T23:05:17.648Z,9.70
2019-04-30T23:07:46.367Z,9.60
2019-04-30T23:10:16.696Z,9.60
2019-04-30T23:12:45.842Z,9.60
2019-04-30T23:15:18.142Z,9.50
2019-04-30T23:17:49.559Z,9.00
2019-04-30T23:20:24.597Z,8.70
2019-04-30T23:23:00.593Z,8.50
2019-04-30T23:25:39.173Z,8.40
2019-04-30T23:28:10.414Z,8.50
2019-04-30T23:30:41.045Z,8.70
2019-04-30T23:33:10.262Z,8.50
2019-04-30T23:35:39.164Z,8.40
2019-04-30T23:38:07.854Z,8.10
2019-04-30T23:40:51.858Z,8.20
2019-04-30T23:43:26.405Z,8.40
2019-04-30T23:45:56.992Z,8.60
2019-04-30T23:48:25.999Z,8.80
2019-04-30T23:50:54.769Z,9.00
2019-04-30T23:53:23.541Z,9.20
2019-04-30T23:55:55.778Z,9.20
2019-04-30T23:58:31.072Z,9.40
